sensor_id;sensor_type;location;lat;lon;timestamp;pressure;altitude;pressure_sealevel;temperature;humidity
75312;BME280;63906;55.686;37.532;2023-02-28T00:02:45;99997.31;;;-6.75;75.01
75312;BME280;63906;55.686;37.532;2023-02-28T00:07:46;99971.38;;;-6.86;75.44
75312;BME280;63906;55.686;37.532;2023-02-28T00:12:47;99987.63;;;-6.68;75.44
75312;BME280;63906;55.686;37.532;2023-02-28T00:17:48;99985.47;;;-6.78;75.07
75312;BME280;63906;55.686;37.532;2023-02-28T00:22:51;99985.81;;;-6.85;75.03
75312;BME280;63906;55.686;37.532;2023-02-28T00:27:52;99969.38;;;-6.98;75.25
75312;BME280;63906;55.686;37.532;2023-02-28T00:33:03;99958.72;;;-7.08;75.10
75312;BME280;63906;55.686;37.532;2023-02-28T00:38:03;99959.72;;;-7.29;75.68
75312;BME280;63906;55.686;37.532;2023-02-28T00:43:04;99984.47;;;-7.30;76.02
75312;BME280;63906;55.686;37.532;2023-02-28T00:48:05;99935.81;;;-7.47;75.93
75312;BME280;63906;55.686;37.532;2023-02-28T00:53:06;99966.75;;;-7.35;76.23
75312;BME280;63906;55.686;37.532;2023-02-28T00:58:06;99928.41;;;-7.53;76.12
75312;BME280;63906;55.686;37.532;2023-02-28T01:03:07;99921.91;;;-7.61;75.94
75312;BME280;63906;55.686;37.532;2023-02-28T01:08:07;99925.47;;;-7.44;75.85
75312;BME280;63906;55.686;37.532;2023-02-28T01:13:08;99927.84;;;-7.22;75.47
75312;BME280;63906;55.686;37.532;2023-02-28T01:18:08;99946.38;;;-7.17;75.70
75312;BME280;63906;55.686;37.532;2023-02-28T01:23:09;99898.28;;;-7.28;75.08
75312;BME280;63906;55.686;37.532;2023-02-28T01:28:09;99909.00;;;-7.20;74.90
75312;BME280;63906;55.686;37.532;2023-02-28T01:33:10;99889.22;;;-7.35;75.09
75312;BME280;63906;55.686;37.532;2023-02-28T01:38:10;99879.84;;;-7.53;75.49
75312;BME280;63906;55.686;37.532;2023-02-28T01:43:24;99853.25;;;-7.68;75.94
75312;BME280;63906;55.686;37.532;2023-02-28T01:48:32;99861.94;;;-7.53;76.26
75312;BME280;63906;55.686;37.532;2023-02-28T01:53:41;99863.81;;;-7.38;75.73
75312;BME280;63906;55.686;37.532;2023-02-28T01:58:44;99833.22;;;-7.59;75.83
75312;BME280;63906;55.686;37.532;2023-02-28T02:03:44;99799.34;;;-7.81;76.14
75312;BME280;63906;55.686;37.532;2023-02-28T02:08:45;99804.44;;;-7.81;76.28
75312;BME280;63906;55.686;37.532;2023-02-28T02:15:09;99829.00;;;-7.60;76.10
75312;BME280;63906;55.686;37.532;2023-02-28T02:30:33;99808.56;;;-7.60;75.80
75312;BME280;63906;55.686;37.532;2023-02-28T02:36:13;99784.63;;;-7.76;76.49
75312;BME280;63906;55.686;37.532;2023-02-28T02:41:18;99797.03;;;-7.68;76.85
75312;BME280;63906;55.686;37.532;2023-02-28T02:46:33;99751.34;;;-7.74;76.26
75312;BME280;63906;55.686;37.532;2023-02-28T02:51:35;99763.91;;;-7.52;76.18
75312;BME280;63906;55.686;37.532;2023-02-28T02:56:39;99753.69;;;-7.52;75.50
75312;BME280;63906;55.686;37.532;2023-02-28T03:01:41;99751.59;;;-7.62;75.41
75312;BME280;63906;55.686;37.532;2023-02-28T03:06:42;99755.66;;;-7.40;75.57
75312;BME280;63906;55.686;37.532;2023-02-28T03:11:43;99719.88;;;-7.57;75.86
75312;BME280;63906;55.686;37.532;2023-02-28T03:16:52;99736.13;;;-7.41;75.51
75312;BME280;63906;55.686;37.532;2023-02-28T03:27:11;99720.66;;;-7.38;75.60
75312;BME280;63906;55.686;37.532;2023-02-28T03:32:36;99705.16;;;-7.35;75.10
75312;BME280;63906;55.686;37.532;2023-02-28T03:37:41;99681.69;;;-7.43;74.82
75312;BME280;63906;55.686;37.532;2023-02-28T03:42:43;99691.41;;;-7.33;74.79
75312;BME280;63906;55.686;37.532;2023-02-28T03:53:15;99626.97;;;-7.74;74.79
75312;BME280;63906;55.686;37.532;2023-02-28T03:58:36;99651.47;;;-7.35;74.28
75312;BME280;63906;55.686;37.532;2023-02-28T04:03:38;99634.91;;;-7.45;73.69
75312;BME280;63906;55.686;37.532;2023-02-28T04:08:39;99623.94;;;-7.65;74.94
75312;BME280;63906;55.686;37.532;2023-02-28T04:13:40;99620.03;;;-7.37;73.93
75312;BME280;63906;55.686;37.532;2023-02-28T04:18:41;99606.78;;;-7.45;73.31
75312;BME280;63906;55.686;37.532;2023-02-28T04:23:43;99622.56;;;-7.20;72.87
75312;BME280;63906;55.686;37.532;2023-02-28T04:28:43;99588.53;;;-7.38;72.40
75312;BME280;63906;55.686;37.532;2023-02-28T04:33:44;99570.97;;;-7.61;72.21
75312;BME280;63906;55.686;37.532;2023-02-28T04:38:45;99584.38;;;-7.23;71.34
75312;BME280;63906;55.686;37.532;2023-02-28T04:43:45;99621.78;;;-7.05;71.40
75312;BME280;63906;55.686;37.532;2023-02-28T04:48:46;99606.34;;;-7.03;71.66
75312;BME280;63906;55.686;37.532;2023-02-28T04:53:47;99565.69;;;-7.08;70.69
75312;BME280;63906;55.686;37.532;2023-02-28T04:58:48;99575.91;;;-7.08;70.96
75312;BME280;63906;55.686;37.532;2023-02-28T05:03:50;99554.47;;;-7.05;70.29
75312;BME280;63906;55.686;37.532;2023-02-28T05:08:52;99570.81;;;-6.92;69.95
75312;BME280;63906;55.686;37.532;2023-02-28T05:13:53;99538.47;;;-6.93;69.26
75312;BME280;63906;55.686;37.532;2023-02-28T05:18:54;99535.66;;;-6.88;69.36
75312;BME280;63906;55.686;37.532;2023-02-28T05:23:59;99519.13;;;-6.51;67.25
75312;BME280;63906;55.686;37.532;2023-02-28T05:28:59;99497.00;;;-6.52;66.73
75312;BME280;63906;55.686;37.532;2023-02-28T05:34:00;99500.69;;;-6.42;66.93
75312;BME280;63906;55.686;37.532;2023-02-28T05:39:01;99469.19;;;-6.58;66.63
75312;BME280;63906;55.686;37.532;2023-02-28T05:44:03;99445.88;;;-6.54;66.43
75312;BME280;63906;55.686;37.532;2023-02-28T05:49:04;99464.06;;;-6.28;65.70
75312;BME280;63906;55.686;37.532;2023-02-28T05:54:07;99443.91;;;-6.34;66.18
75312;BME280;63906;55.686;37.532;2023-02-28T05:59:08;99415.56;;;-6.45;66.44
75312;BME280;63906;55.686;37.532;2023-02-28T06:04:12;99430.25;;;-6.05;64.89
75312;BME280;63906;55.686;37.532;2023-02-28T06:09:15;99357.69;;;-6.34;65.06
75312;BME280;63906;55.686;37.532;2023-02-28T06:14:19;99388.53;;;-5.92;64.66
75312;BME280;63906;55.686;37.532;2023-02-28T06:19:19;99379.53;;;-5.85;64.08
75312;BME280;63906;55.686;37.532;2023-02-28T06:24:24;99386.56;;;-5.60;63.53
75312;BME280;63906;55.686;37.532;2023-02-28T06:29:25;99333.84;;;-5.79;63.00
75312;BME280;63906;55.686;37.532;2023-02-28T06:34:25;99337.91;;;-5.48;62.99
75312;BME280;63906;55.686;37.532;2023-02-28T06:39:26;99350.84;;;-4.95;61.93
75312;BME280;63906;55.686;37.532;2023-02-28T06:44:27;99381.41;;;-4.78;61.84
75312;BME280;63906;55.686;37.532;2023-02-28T06:49:27;99321.56;;;-4.53;59.94
75312;BME280;63906;55.686;37.532;2023-02-28T06:54:28;99316.22;;;-4.24;59.39
75312;BME280;63906;55.686;37.532;2023-02-28T06:59:28;99336.75;;;-3.99;59.13
75312;BME280;63906;55.686;37.532;2023-02-28T07:04:29;99279.41;;;-4.12;59.49
75312;BME280;63906;55.686;37.532;2023-02-28T07:09:29;99299.31;;;-3.90;59.44
75312;BME280;63906;55.686;37.532;2023-02-28T07:14:30;99266.56;;;-3.75;59.71
75312;BME280;63906;55.686;37.532;2023-02-28T07:19:30;99282.34;;;-3.56;59.27
75312;BME280;63906;55.686;37.532;2023-02-28T07:24:31;99264.50;;;-3.22;59.86
75312;BME280;63906;55.686;37.532;2023-02-28T07:29:32;99226.50;;;-3.08;60.05
75312;BME280;63906;55.686;37.532;2023-02-28T07:34:33;99245.63;;;-2.88;59.76
75312;BME280;63906;55.686;37.532;2023-02-28T07:39:33;99218.00;;;-2.86;60.29
75312;BME280;63906;55.686;37.532;2023-02-28T07:44:33;99196.03;;;-2.79;59.98
75312;BME280;63906;55.686;37.532;2023-02-28T07:49:35;99220.13;;;-2.80;60.09
75312;BME280;63906;55.686;37.532;2023-02-28T07:54:36;99229.75;;;-2.71;60.73
75312;BME280;63906;55.686;37.532;2023-02-28T07:59:37;99169.81;;;-2.73;60.25
75312;BME280;63906;55.686;37.532;2023-02-28T08:04:37;99233.28;;;-2.60;60.98
75312;BME280;63906;55.686;37.532;2023-02-28T08:09:42;99174.25;;;-2.41;60.53
75312;BME280;63906;55.686;37.532;2023-02-28T08:14:43;99178.41;;;-2.18;60.46
75312;BME280;63906;55.686;37.532;2023-02-28T08:19:46;99192.41;;;-1.88;59.78
75312;BME280;63906;55.686;37.532;2023-02-28T08:24:47;99156.53;;;-1.80;58.92
75312;BME280;63906;55.686;37.532;2023-02-28T08:29:47;99138.75;;;-1.41;58.21
75312;BME280;63906;55.686;37.532;2023-02-28T08:34:48;99091.19;;;-1.48;58.14
75312;BME280;63906;55.686;37.532;2023-02-28T08:39:49;99077.47;;;-1.49;58.28
75312;BME280;63906;55.686;37.532;2023-02-28T08:44:49;99069.09;;;-1.31;58.11
75312;BME280;63906;55.686;37.532;2023-02-28T08:49:50;99149.31;;;-1.44;58.36
75312;BME280;63906;55.686;37.532;2023-02-28T08:54:50;99180.28;;;-1.44;59.32
75312;BME280;63906;55.686;37.532;2023-02-28T08:59:51;99139.63;;;-1.73;60.44
75312;BME280;63906;55.686;37.532;2023-02-28T09:04:51;99137.03;;;-1.73;61.18
75312;BME280;63906;55.686;37.532;2023-02-28T09:09:52;99093.53;;;-1.98;61.47
75312;BME280;63906;55.686;37.532;2023-02-28T09:14:55;99112.56;;;-1.57;61.69
75312;BME280;63906;55.686;37.532;2023-02-28T09:19:56;99106.34;;;-1.55;62.24
75312;BME280;63906;55.686;37.532;2023-02-28T09:24:57;99093.50;;;-1.45;61.50
75312;BME280;63906;55.686;37.532;2023-02-28T09:29:57;99089.22;;;-1.35;61.52
75312;BME280;63906;55.686;37.532;2023-02-28T09:34:58;99083.09;;;-1.34;61.94
75312;BME280;63906;55.686;37.532;2023-02-28T09:39:58;99080.09;;;-1.39;62.11
75312;BME280;63906;55.686;37.532;2023-02-28T09:45:02;99112.25;;;-1.43;63.09
75312;BME280;63906;55.686;37.532;2023-02-28T09:55:31;99096.13;;;-1.15;62.18
75312;BME280;63906;55.686;37.532;2023-02-28T10:00:36;99072.25;;;-1.28;62.67
75312;BME280;63906;55.686;37.532;2023-02-28T10:06:14;99061.94;;;-1.28;62.31
75312;BME280;63906;55.686;37.532;2023-02-28T10:11:17;99068.72;;;-1.27;62.01
75312;BME280;63906;55.686;37.532;2023-02-28T10:16:25;99080.69;;;-1.26;63.16
75312;BME280;63906;55.686;37.532;2023-02-28T10:21:38;99082.63;;;-1.18;62.66
75312;BME280;63906;55.686;37.532;2023-02-28T10:26:43;99012.75;;;-1.26;63.51
75312;BME280;63906;55.686;37.532;2023-02-28T10:31:45;99028.97;;;-1.15;62.92
75312;BME280;63906;55.686;37.532;2023-02-28T10:36:46;99001.09;;;-1.21;63.26
75312;BME280;63906;55.686;37.532;2023-02-28T10:41:47;98990.50;;;-1.18;63.46
75312;BME280;63906;55.686;37.532;2023-02-28T10:46:48;98979.63;;;-1.21;63.78
75312;BME280;63906;55.686;37.532;2023-02-28T10:51:52;98982.34;;;-1.23;63.75
75312;BME280;63906;55.686;37.532;2023-02-28T11:02:35;98973.38;;;-1.19;64.72
75312;BME280;63906;55.686;37.532;2023-02-28T11:07:37;98921.75;;;-1.49;65.10
75312;BME280;63906;55.686;37.532;2023-02-28T11:12:39;98971.28;;;-1.34;65.88
75312;BME280;63906;55.686;37.532;2023-02-28T11:17:43;98939.94;;;-1.60;66.12
75312;BME280;63906;55.686;37.532;2023-02-28T11:22:45;98938.09;;;-1.49;66.46
75312;BME280;63906;55.686;37.532;2023-02-28T11:27:49;98928.91;;;-1.63;66.81
75312;BME280;63906;55.686;37.532;2023-02-28T11:32:50;98912.59;;;-1.42;66.34
75312;BME280;63906;55.686;37.532;2023-02-28T11:37:50;98917.16;;;-1.46;66.45
75312;BME280;63906;55.686;37.532;2023-02-28T11:43:07;98910.00;;;-1.42;66.43
75312;BME280;63906;55.686;37.532;2023-02-28T12:04:25;98918.50;;;-1.11;66.93
75312;BME280;63906;55.686;37.532;2023-02-28T12:09:47;98875.19;;;-1.48;68.45
75312;BME280;63906;55.686;37.532;2023-02-28T12:31:00;98890.72;;;-1.78;74.17
75312;BME280;63906;55.686;37.532;2023-02-28T12:36:09;98890.06;;;-1.71;74.16
75312;BME280;63906;55.686;37.532;2023-02-28T12:41:18;98866.13;;;-1.82;75.03
75312;BME280;63906;55.686;37.532;2023-02-28T12:46:24;98873.19;;;-1.75;75.46
75312;BME280;63906;55.686;37.532;2023-02-28T12:51:26;98859.56;;;-1.86;76.31
75312;BME280;63906;55.686;37.532;2023-02-28T12:56:48;98853.06;;;-1.91;76.81
75312;BME280;63906;55.686;37.532;2023-02-28T13:12:22;98815.84;;;-1.98;76.73
75312;BME280;63906;55.686;37.532;2023-02-28T13:17:24;98797.59;;;-2.06;77.03
75312;BME280;63906;55.686;37.532;2023-02-28T13:27:37;98811.28;;;-1.84;75.96
75312;BME280;63906;55.686;37.532;2023-02-28T13:32:39;98791.13;;;-2.00;75.93
75312;BME280;63906;55.686;37.532;2023-02-28T13:37:44;98799.88;;;-1.82;75.86
75312;BME280;63906;55.686;37.532;2023-02-28T13:42:49;98811.03;;;-1.62;75.10
75312;BME280;63906;55.686;37.532;2023-02-28T13:48:01;98795.31;;;-1.59;75.39
75312;BME280;63906;55.686;37.532;2023-02-28T14:09:40;98773.31;;;-1.44;74.69
75312;BME280;63906;55.686;37.532;2023-02-28T14:19:46;98767.34;;;-1.54;75.64
75312;BME280;63906;55.686;37.532;2023-02-28T14:25:09;98765.72;;;-1.45;75.97
75312;BME280;63906;55.686;37.532;2023-02-28T14:40:57;98733.25;;;-1.48;77.13
75312;BME280;63906;55.686;37.532;2023-02-28T14:46:00;98730.13;;;-1.32;77.93
75312;BME280;63906;55.686;37.532;2023-02-28T14:51:02;98733.66;;;-1.33;78.46
75312;BME280;63906;55.686;37.532;2023-02-28T14:56:03;98728.50;;;-1.33;78.42
75312;BME280;63906;55.686;37.532;2023-02-28T15:01:04;98707.97;;;-1.25;78.84
75312;BME280;63906;55.686;37.532;2023-02-28T15:06:16;98698.91;;;-1.29;78.80
75312;BME280;63906;55.686;37.532;2023-02-28T15:11:18;98690.63;;;-1.42;78.83
75312;BME280;63906;55.686;37.532;2023-02-28T15:16:26;98692.38;;;-1.33;78.96
75312;BME280;63906;55.686;37.532;2023-02-28T15:26:32;98714.91;;;-1.16;79.07
75312;BME280;63906;55.686;37.532;2023-02-28T15:31:39;98709.44;;;-1.13;79.11
75312;BME280;63906;55.686;37.532;2023-02-28T15:36:41;98706.06;;;-1.03;79.47
75312;BME280;63906;55.686;37.532;2023-02-28T15:41:41;98708.09;;;-0.97;79.22
75312;BME280;63906;55.686;37.532;2023-02-28T15:46:54;98683.63;;;-1.03;78.72
75312;BME280;63906;55.686;37.532;2023-02-28T15:51:58;98668.94;;;-1.02;78.80
75312;BME280;63906;55.686;37.532;2023-02-28T15:57:05;98709.16;;;-0.90;78.57
75312;BME280;63906;55.686;37.532;2023-02-28T16:02:19;98697.41;;;-0.75;78.24
75312;BME280;63906;55.686;37.532;2023-02-28T16:07:21;98685.34;;;-0.74;78.68
75312;BME280;63906;55.686;37.532;2023-02-28T16:12:25;98659.91;;;-0.79;78.86
75312;BME280;63906;55.686;37.532;2023-02-28T16:17:29;98678.59;;;-0.58;78.49
75312;BME280;63906;55.686;37.532;2023-02-28T16:22:30;98685.91;;;-0.53;77.92
75312;BME280;63906;55.686;37.532;2023-02-28T16:27:33;98656.38;;;-0.50;77.90
75312;BME280;63906;55.686;37.532;2023-02-28T16:32:36;98649.59;;;-0.51;77.77
75312;BME280;63906;55.686;37.532;2023-02-28T16:37:36;98673.31;;;-0.38;77.25
75312;BME280;63906;55.686;37.532;2023-02-28T16:42:38;98646.25;;;-0.62;77.47
75312;BME280;63906;55.686;37.532;2023-02-28T16:47:39;98652.94;;;-0.41;77.90
75312;BME280;63906;55.686;37.532;2023-02-28T16:52:39;98650.97;;;-0.30;77.15
75312;BME280;63906;55.686;37.532;2023-02-28T16:57:40;98630.00;;;-0.27;77.18
75312;BME280;63906;55.686;37.532;2023-02-28T17:02:41;98639.13;;;-0.32;77.96
75312;BME280;63906;55.686;37.532;2023-02-28T17:07:42;98647.66;;;-0.22;78.08
75312;BME280;63906;55.686;37.532;2023-02-28T17:12:43;98665.13;;;-0.24;78.11
75312;BME280;63906;55.686;37.532;2023-02-28T17:17:44;98631.97;;;-0.38;79.80
75312;BME280;63906;55.686;37.532;2023-02-28T17:22:45;98654.19;;;-0.18;81.25
75312;BME280;63906;55.686;37.532;2023-02-28T17:27:49;98627.09;;;-0.41;81.52
75312;BME280;63906;55.686;37.532;2023-02-28T17:32:55;98613.56;;;-0.53;81.64
75312;BME280;63906;55.686;37.532;2023-02-28T17:37:55;98638.25;;;-0.41;81.88
75312;BME280;63906;55.686;37.532;2023-02-28T17:42:56;98636.81;;;-0.53;82.12
75312;BME280;63906;55.686;37.532;2023-02-28T17:47:59;98630.63;;;-0.70;81.85
75312;BME280;63906;55.686;37.532;2023-02-28T17:52:59;98660.88;;;-0.52;82.36
75312;BME280;63906;55.686;37.532;2023-02-28T17:58:01;98647.53;;;-0.48;82.59
75312;BME280;63906;55.686;37.532;2023-02-28T18:03:03;98641.16;;;-0.53;82.06
75312;BME280;63906;55.686;37.532;2023-02-28T18:08:03;98679.03;;;-0.35;82.83
75312;BME280;63906;55.686;37.532;2023-02-28T18:13:04;98688.91;;;-0.58;81.63
75312;BME280;63906;55.686;37.532;2023-02-28T18:18:05;98688.25;;;-1.06;82.07
75312;BME280;63906;55.686;37.532;2023-02-28T18:23:06;98695.63;;;-1.31;81.72
75312;BME280;63906;55.686;37.532;2023-02-28T18:28:07;98706.91;;;-1.22;80.57
75312;BME280;63906;55.686;37.532;2023-02-28T18:33:08;98729.47;;;-1.34;79.99
75312;BME280;63906;55.686;37.532;2023-02-28T18:38:14;98707.31;;;-1.66;79.63
75312;BME280;63906;55.686;37.532;2023-02-28T18:43:15;98652.13;;;-2.13;79.12
75312;BME280;63906;55.686;37.532;2023-02-28T18:48:16;98715.66;;;-2.02;80.19
75312;BME280;63906;55.686;37.532;2023-02-28T18:53:18;98703.97;;;-2.06;81.27
75312;BME280;63906;55.686;37.532;2023-02-28T18:58:19;98704.41;;;-2.01;81.01
75312;BME280;63906;55.686;37.532;2023-02-28T19:03:20;98713.41;;;-1.76;79.48
75312;BME280;63906;55.686;37.532;2023-02-28T19:08:20;98714.34;;;-1.87;80.00
75312;BME280;63906;55.686;37.532;2023-02-28T19:13:21;98693.69;;;-1.97;80.28
75312;BME280;63906;55.686;37.532;2023-02-28T19:18:21;98726.16;;;-1.75;79.61
75312;BME280;63906;55.686;37.532;2023-02-28T19:23:24;98701.72;;;-1.71;80.08
75312;BME280;63906;55.686;37.532;2023-02-28T19:28:28;98692.91;;;-1.78;80.45
75312;BME280;63906;55.686;37.532;2023-02-28T19:33:30;98672.81;;;-1.84;79.38
75312;BME280;63906;55.686;37.532;2023-02-28T19:38:30;98715.19;;;-1.57;80.92
75312;BME280;63906;55.686;37.532;2023-02-28T19:43:31;98666.03;;;-1.85;80.78
75312;BME280;63906;55.686;37.532;2023-02-28T19:48:32;98680.16;;;-1.60;80.18
75312;BME280;63906;55.686;37.532;2023-02-28T19:53:34;98705.28;;;-1.52;80.39
75312;BME280;63906;55.686;37.532;2023-02-28T19:58:38;98692.91;;;-1.39;75.97
75312;BME280;63906;55.686;37.532;2023-02-28T20:03:39;98690.59;;;-1.62;77.18
75312;BME280;63906;55.686;37.532;2023-02-28T20:08:39;98673.66;;;-1.74;75.59
75312;BME280;63906;55.686;37.532;2023-02-28T20:13:41;98706.06;;;-1.81;74.01
75312;BME280;63906;55.686;37.532;2023-02-28T20:18:41;98668.59;;;-2.04;73.43
75312;BME280;63906;55.686;37.532;2023-02-28T20:23:44;98704.97;;;-1.98;72.71
75312;BME280;63906;55.686;37.532;2023-02-28T20:28:46;98715.34;;;-2.28;72.94
75312;BME280;63906;55.686;37.532;2023-02-28T20:33:48;98688.38;;;-2.55;71.55
75312;BME280;63906;55.686;37.532;2023-02-28T20:38:50;98676.25;;;-2.94;73.75
75312;BME280;63906;55.686;37.532;2023-02-28T20:43:55;98685.03;;;-2.76;71.60
75312;BME280;63906;55.686;37.532;2023-02-28T20:48:57;98674.25;;;-3.12;71.62
75312;BME280;63906;55.686;37.532;2023-02-28T20:53:57;98695.97;;;-3.05;72.10
75312;BME280;63906;55.686;37.532;2023-02-28T20:58:58;98700.28;;;-3.15;71.75
75312;BME280;63906;55.686;37.532;2023-02-28T21:04:02;98683.34;;;-3.49;72.68
75312;BME280;63906;55.686;37.532;2023-02-28T21:09:05;98706.59;;;-3.40;74.10
75312;BME280;63906;55.686;37.532;2023-02-28T21:14:14;98682.22;;;-3.57;73.52
75312;BME280;63906;55.686;37.532;2023-02-28T21:19:15;98712.88;;;-3.33;71.20
75312;BME280;63906;55.686;37.532;2023-02-28T21:24:18;98708.94;;;-3.48;70.80
75312;BME280;63906;55.686;37.532;2023-02-28T21:29:19;98712.16;;;-3.56;70.69
75312;BME280;63906;55.686;37.532;2023-02-28T21:34:20;98725.91;;;-3.45;69.46
75312;BME280;63906;55.686;37.532;2023-02-28T21:39:23;98743.78;;;-3.44;68.83
75312;BME280;63906;55.686;37.532;2023-02-28T21:44:24;98736.22;;;-3.57;68.67
75312;BME280;63906;55.686;37.532;2023-02-28T21:49:27;98715.38;;;-3.86;69.17
75312;BME280;63906;55.686;37.532;2023-02-28T21:54:28;98738.03;;;-3.80;68.31
75312;BME280;63906;55.686;37.532;2023-02-28T21:59:29;98743.91;;;-3.77;68.07
75312;BME280;63906;55.686;37.532;2023-02-28T22:04:29;98725.13;;;-3.89;67.25
75312;BME280;63906;55.686;37.532;2023-02-28T22:09:30;98737.13;;;-3.78;65.30
75312;BME280;63906;55.686;37.532;2023-02-28T22:14:31;98746.00;;;-3.83;65.17
75312;BME280;63906;55.686;37.532;2023-02-28T22:19:32;98726.16;;;-3.92;64.47
75312;BME280;63906;55.686;37.532;2023-02-28T22:24:32;98725.47;;;-4.05;65.70
75312;BME280;63906;55.686;37.532;2023-02-28T22:29:33;98736.91;;;-3.98;64.81
75312;BME280;63906;55.686;37.532;2023-02-28T22:34:33;98726.78;;;-4.11;64.94
75312;BME280;63906;55.686;37.532;2023-02-28T22:39:34;98742.53;;;-4.04;64.59
75312;BME280;63906;55.686;37.532;2023-02-28T22:44:35;98713.25;;;-4.24;64.23
75312;BME280;63906;55.686;37.532;2023-02-28T22:49:35;98730.41;;;-4.24;61.83
75312;BME280;63906;55.686;37.532;2023-02-28T22:54:36;98729.47;;;-4.23;64.75
75312;BME280;63906;55.686;37.532;2023-02-28T22:59:36;98727.50;;;-4.42;64.20
75312;BME280;63906;55.686;37.532;2023-02-28T23:04:37;98731.00;;;-4.43;63.72
75312;BME280;63906;55.686;37.532;2023-02-28T23:09:37;98738.13;;;-4.36;64.33
75312;BME280;63906;55.686;37.532;2023-02-28T23:14:38;98726.94;;;-4.46;63.59
75312;BME280;63906;55.686;37.532;2023-02-28T23:19:39;98723.66;;;-4.48;63.99
75312;BME280;63906;55.686;37.532;2023-02-28T23:24:39;98724.94;;;-4.53;63.93
75312;BME280;63906;55.686;37.532;2023-02-28T23:29:40;98719.69;;;-4.63;64.14
75312;BME280;63906;55.686;37.532;2023-02-28T23:34:41;98717.81;;;-4.61;63.50
75312;BME280;63906;55.686;37.532;2023-02-28T23:39:42;98721.78;;;-4.68;64.02
75312;BME280;63906;55.686;37.532;2023-02-28T23:44:42;98713.72;;;-4.75;61.81
75312;BME280;63906;55.686;37.532;2023-02-28T23:49:43;98690.50;;;-4.84;63.02
75312;BME280;63906;55.686;37.532;2023-02-28T23:54:44;98710.22;;;-4.74;62.07
75312;BME280;63906;55.686;37.532;2023-02-28T23:59:44;98702.78;;;-4.77;62.84
